Time;durP1;ratioP1;P1;durP2;ratioP2;P2;SDS_P1;SDS_P2;PMS_P1;PMS_P2;Temp;Humidity;BMP_temperature;BMP_pressure;BME280_temperature;BME280_humidity;BME280_pressure;Samples;Min_cycle;Max_cycle;Signal;HPM_P1;HPM_P2
2022/09/08 00:01:50;;;;;;;34.90;23.35;;;;;;;;;;10034865;28;20053;-65
2022/09/08 00:06:46;;;;;;;24.80;19.33;;;;;;;;;;10036983;28;20049;-65
2022/09/08 00:11:40;;;;;;;23.60;20.08;;;;;;;;;;10037120;28;20133;-65
2022/09/08 00:16:34;;;;;;;27.58;21.33;;;;;;;;;;10015059;28;20058;-64
2022/09/08 00:21:28;;;;;;;25.25;21.55;;;;;;;;;;10018181;28;20045;-64
2022/09/08 00:26:22;;;;;;;22.40;19.20;;;;;;;;;;10034858;28;20053;-65
2022/09/08 00:31:16;;;;;;;28.90;21.77;;;;;;;;;;10032152;28;20467;-65
2022/09/08 00:36:17;;;;;;;28.63;20.55;;;;;;;;;;10031519;28;20046;-65
2022/09/08 00:41:12;;;;;;;28.30;24.27;;;;;;;;;;10033468;28;20568;-65
2022/09/08 00:46:16;;;;;;;27.35;21.23;;;;;;;;;;10032209;28;20409;-65
2022/09/08 00:51:10;;;;;;;30.08;18.50;;;;;;;;;;10031724;28;20064;-65
2022/09/08 00:56:06;;;;;;;23.50;20.90;;;;;;;;;;10015646;28;20056;-65
2022/09/08 01:01:03;;;;;;;24.15;19.00;;;;;;;;;;10037718;28;20041;-65
2022/09/08 01:06:13;;;;;;;27.23;23.00;;;;;;;;;;10032355;28;20054;-65
2022/09/08 01:16:27;;;;;;;21.27;18.02;;;;;;;;;;10015153;28;20064;-65
2022/09/08 01:22:05;;;;;;;20.95;18.88;;;;;;;;;;10028862;28;20042;-65
2022/09/08 01:27:37;;;;;;;22.58;18.77;;;;;;;;;;10030085;28;20514;-65
2022/09/08 01:32:32;;;;;;;25.60;20.90;;;;;;;;;;10031688;28;20062;-65
2022/09/08 01:37:41;;;;;;;21.42;19.02;;;;;;;;;;10014534;28;20129;-65
2022/09/08 01:42:35;;;;;;;23.20;18.42;;;;;;;;;;10030216;28;20054;-65
2022/09/08 01:47:29;;;;;;;25.67;18.30;;;;;;;;;;10032601;28;20085;-65
2022/09/08 01:52:24;;;;;;;23.98;17.38;;;;;;;;;;10031212;28;20516;-65
2022/09/08 01:57:19;;;;;;;24.67;17.02;;;;;;;;;;10032412;28;20501;-65
2022/09/08 02:02:12;;;;;;;24.88;17.15;;;;;;;;;;10016859;28;20049;-65
2022/09/08 02:07:06;;;;;;;24.52;19.73;;;;;;;;;;10032211;28;20053;-65
2022/09/08 02:12:01;;;;;;;21.58;18.75;;;;;;;;;;10034597;28;20050;-65
2022/09/08 02:16:54;;;;;;;18.92;16.83;;;;;;;;;;10028372;28;20054;-65
2022/09/08 02:21:48;;;;;;;25.58;18.27;;;;;;;;;;10032337;28;20449;-65
2022/09/08 02:26:42;;;;;;;22.65;18.63;;;;;;;;;;10030396;28;20054;-65
2022/09/08 02:31:36;;;;;;;17.60;15.75;;;;;;;;;;10027709;28;20398;-64
2022/09/08 02:36:30;;;;;;;22.90;19.30;;;;;;;;;;10033280;28;20054;-64
2022/09/08 02:41:28;;;;;;;21.33;18.67;;;;;;;;;;10031025;28;20509;-64
2022/09/08 02:46:22;;;;;;;25.88;18.70;;;;;;;;;;10028200;28;20046;-65
2022/09/08 02:51:18;;;;;;;21.73;18.58;;;;;;;;;;10031673;28;20049;-65
2022/09/08 02:56:12;;;;;;;26.67;20.83;;;;;;;;;;10031052;28;20501;-65
2022/09/08 03:01:06;;;;;;;24.40;21.40;;;;;;;;;;10033505;28;20048;-65
2022/09/08 03:06:02;;;;;;;20.65;18.55;;;;;;;;;;10029832;28;20085;-64
2022/09/08 03:10:59;;;;;;;;;;;;;;;;;;10032459;28;20382;-65
2022/09/08 03:15:53;;;;;;;30.98;22.92;;;;;;;;;;10031222;28;19953;-65
2022/09/08 03:20:47;;;;;;;27.58;21.35;;;;;;;;;;10036062;28;20477;-65
2022/09/08 03:25:41;;;;;;;24.35;21.85;;;;;;;;;;10038202;28;20065;-64
2022/09/08 03:30:34;;;;;;;31.65;21.83;;;;;;;;;;10034995;28;20422;-65
2022/09/08 03:35:30;;;;;;;25.70;23.08;;;;;;;;;;10034799;28;20050;-65
2022/09/08 03:40:24;;;;;;;23.00;20.55;;;;;;;;;;10017443;28;20115;-65
2022/09/08 03:45:18;;;;;;;23.13;19.10;;;;;;;;;;10036866;28;20053;-65
2022/09/08 03:50:14;;;;;;;28.27;21.27;;;;;;;;;;10035743;28;20076;-65
2022/09/08 03:55:09;;;;;;;24.60;22.08;;;;;;;;;;10034316;28;20054;-65
2022/09/08 04:00:08;;;;;;;25.08;22.10;;;;;;;;;;10037085;28;20099;-65
2022/09/08 04:05:05;;;;;;;26.75;22.10;;;;;;;;;;10035697;28;20107;-65
2022/09/08 04:10:01;;;;;;;26.50;22.80;;;;;;;;;;10017239;28;20133;-65
2022/09/08 04:15:06;;;;;;;25.20;20.48;;;;;;;;;;10033740;28;20050;-65
2022/09/08 04:20:01;;;;;;;30.10;24.05;;;;;;;;;;10035673;28;20054;-65
2022/09/08 04:24:55;;;;;;;24.67;20.95;;;;;;;;;;10033411;28;20128;-65
2022/09/08 04:29:50;;;;;;;23.95;21.20;;;;;;;;;;10033212;28;20065;-65
2022/09/08 04:34:45;;;;;;;24.27;21.50;;;;;;;;;;10033162;28;20076;-65
2022/09/08 04:39:41;;;;;;;28.00;21.23;;;;;;;;;;10023905;28;20120;-65
2022/09/08 04:44:36;;;;;;;28.58;22.02;;;;;;;;;;10027617;28;20489;-65
2022/09/08 04:49:30;;;;;;;30.33;21.60;;;;;;;;;;10038135;28;20045;-65
2022/09/08 04:54:24;;;;;;;21.38;19.27;;;;;;;;;;10048269;28;20041;-65
2022/09/08 04:59:24;;;;;;;22.55;20.20;;;;;;;;;;10046152;28;20515;-65
2022/09/08 05:04:19;;;;;;;22.73;18.30;;;;;;;;;;10042321;28;20129;-65
2022/09/08 05:09:13;;;;;;;22.65;20.27;;;;;;;;;;10024059;28;20051;-64
2022/09/08 05:14:07;;;;;;;23.67;19.92;;;;;;;;;;10046699;28;20069;-66
2022/09/08 05:19:04;;;;;;;25.60;21.00;;;;;;;;;;10058394;28;20053;-62
2022/09/08 05:24:02;;;;;;;25.17;20.27;;;;;;;;;;10051315;28;20050;-62
2022/09/08 05:28:55;;;;;;;25.38;21.00;;;;;;;;;;10049686;28;20061;-60
2022/09/08 05:33:50;;;;;;;32.40;23.15;;;;;;;;;;10030792;28;20046;-62
2022/09/08 05:38:44;;;;;;;37.05;24.38;;;;;;;;;;10044120;28;20044;-63
2022/09/08 05:43:37;;;;;;;30.80;23.58;;;;;;;;;;10031915;28;20081;-64
2022/09/08 05:48:31;;;;;;;29.73;25.35;;;;;;;;;;10063442;28;20115;-63
2022/09/08 05:53:25;;;;;;;32.08;22.73;;;;;;;;;;10033178;28;20037;-61
2022/09/08 05:58:20;;;;;;;35.15;22.73;;;;;;;;;;10043606;28;20065;-64
2022/09/08 06:03:15;;;;;;;27.42;23.55;;;;;;;;;;10042844;28;20050;-64
2022/09/08 06:08:09;;;;;;;28.90;23.00;;;;;;;;;;10035161;28;20095;-63
2022/09/08 06:13:03;;;;;;;24.45;21.80;;;;;;;;;;10060278;28;20049;-63
2022/09/08 06:18:01;;;;;;;30.50;21.70;;;;;;;;;;10048173;28;20053;-63
2022/09/08 06:22:54;;;;;;;26.70;20.55;;;;;;;;;;10037309;28;20061;-63
2022/09/08 06:28:22;;;;;;;24.08;17.58;;;;;;;;;;10048299;28;20046;-63
2022/09/08 06:33:24;;;;;;;21.52;17.25;;;;;;;;;;10041172;28;20554;-63
2022/09/08 06:38:41;;;;;;;22.55;18.85;;;;;;;;;;10050234;28;20057;-64
2022/09/08 06:43:47;;;;;;;28.27;16.67;;;;;;;;;;10034821;28;20046;-64
2022/09/08 06:48:40;;;;;;;24.67;15.55;;;;;;;;;;10029584;28;20045;-64
2022/09/08 06:54:01;;;;;;;21.95;15.00;;;;;;;;;;10061721;28;20053;-64
2022/09/08 06:59:02;;;;;;;17.90;16.00;;;;;;;;;;10048704;28;20054;-64
2022/09/08 07:04:20;;;;;;;22.48;16.90;;;;;;;;;;10053930;28;20476;-64
2022/09/08 07:09:38;;;;;;;24.50;16.80;;;;;;;;;;10055774;28;20546;-64
2022/09/08 07:15:10;;;;;;;25.08;16.17;;;;;;;;;;10057522;28;20128;-63
2022/09/08 07:20:27;;;;;;;18.45;14.23;;;;;;;;;;10042209;28;20050;-64
2022/09/08 07:25:37;;;;;;;20.30;14.05;;;;;;;;;;10056934;28;20435;-64
2022/09/08 07:30:31;;;;;;;20.10;13.50;;;;;;;;;;10022535;28;20056;-63
2022/09/08 07:35:41;;;;;;;24.15;16.10;;;;;;;;;;10017877;28;20505;-63
2022/09/08 07:40:45;;;;;;;16.38;12.73;;;;;;;;;;10017146;28;20058;-64
2022/09/08 07:45:48;;;;;;;17.85;13.40;;;;;;;;;;10020452;28;20052;-64
2022/09/08 07:50:55;;;;;;;16.40;10.60;;;;;;;;;;10005564;28;20069;-64
2022/09/08 07:55:50;;;;;;;14.38;11.05;;;;;;;;;;10017725;28;20085;-64
2022/09/08 08:00:51;;;;;;;21.42;11.50;;;;;;;;;;10007584;28;20132;-63
2022/09/08 08:06:01;;;;;;;11.20;9.25;;;;;;;;;;10010485;28;20058;-64
2022/09/08 08:11:32;;;;;;;12.85;10.23;;;;;;;;;;10023418;28;20513;-64
2022/09/08 08:16:46;;;;;;;15.90;9.30;;;;;;;;;;10019581;28;20049;-64
2022/09/08 08:21:47;;;;;;;12.32;9.38;;;;;;;;;;10009495;28;20489;-64
2022/09/08 08:27:00;;;;;;;15.25;11.10;;;;;;;;;;10015923;28;20062;-64
2022/09/08 08:32:18;;;;;;;18.65;7.78;;;;;;;;;;10010212;28;20077;-63
2022/09/08 08:37:32;;;;;;;26.75;8.45;;;;;;;;;;10010958;28;20046;-63
2022/09/08 08:42:59;;;;;;;14.10;6.70;;;;;;;;;;10018502;28;20166;-64
2022/09/08 08:48:25;;;;;;;16.77;6.05;;;;;;;;;;10014961;28;20049;-63
2022/09/08 08:53:48;;;;;;;15.27;5.38;;;;;;;;;;9939553;28;20050;-63
2022/09/08 08:59:13;;;;;;;10.52;3.80;;;;;;;;;;10002758;28;20054;-64
2022/09/08 09:04:24;;;;;;;11.82;3.97;;;;;;;;;;10020929;28;20382;-63
2022/09/08 09:09:36;;;;;;;17.88;4.38;;;;;;;;;;10007737;28;20408;-64
2022/09/08 09:15:26;;;;;;;9.70;3.38;;;;;;;;;;10027122;28;20076;-64
2022/09/08 09:21:08;;;;;;;16.17;3.65;;;;;;;;;;9834470;29;20052;-64
2022/09/08 09:26:21;;;;;;;15.43;3.67;;;;;;;;;;9998928;28;20054;-64
2022/09/08 09:31:21;;;;;;;15.18;4.68;;;;;;;;;;10007855;28;20080;-65
2022/09/08 09:36:20;;;;;;;15.48;4.78;;;;;;;;;;10007549;28;20050;-64
2022/09/08 09:41:36;;;;;;;9.25;5.05;;;;;;;;;;10015860;28;20129;-62
2022/09/08 09:47:06;;;;;;;14.50;4.55;;;;;;;;;;10008752;28;20579;-62
2022/09/08 09:52:26;;;;;;;16.02;5.82;;;;;;;;;;9996586;28;20129;-62
2022/09/08 09:57:43;;;;;;;16.48;7.25;;;;;;;;;;10010704;28;20124;-62
2022/09/08 10:03:13;;;;;;;11.95;5.93;;;;;;;;;;10010887;28;20062;-62
2022/09/08 10:08:24;;;;;;;10.63;5.30;;;;;;;;;;10006084;28;20076;-63
2022/09/08 10:13:26;;;;;;;11.70;5.32;;;;;;;;;;10000326;28;20081;-62
2022/09/08 10:18:55;;;;;;;10.30;4.85;;;;;;;;;;10023011;28;20136;-62
2022/09/08 10:24:26;;;;;;;11.43;4.93;;;;;;;;;;9963124;28;20064;-62
2022/09/08 10:29:25;;;;;;;8.80;3.38;;;;;;;;;;10030198;28;20050;-62
2022/09/08 10:34:56;;;;;;;7.35;2.63;;;;;;;;;;10049408;28;20051;-62
2022/09/08 10:40:23;;;;;;;11.65;3.10;;;;;;;;;;10058932;28;20112;-62
2022/09/08 10:45:50;;;;;;;10.10;2.33;;;;;;;;;;10046371;28;20046;-63
2022/09/08 10:50:51;;;;;;;8.73;2.65;;;;;;;;;;10056293;28;20053;-63
2022/09/08 10:55:56;;;;;;;13.63;3.03;;;;;;;;;;10062573;28;20133;-65
2022/09/08 11:01:13;;;;;;;7.13;2.67;;;;;;;;;;10063850;28;20563;-63
2022/09/08 11:06:08;;;;;;;8.55;2.17;;;;;;;;;;10059116;28;20088;-62
2022/09/08 11:11:10;;;;;;;7.93;2.60;;;;;;;;;;10060388;28;20070;-62
2022/09/08 11:16:06;;;;;;;6.38;1.83;;;;;;;;;;10057997;28;20065;-62
2022/09/08 11:21:02;;;;;;;9.75;2.40;;;;;;;;;;10064941;28;20114;-61
2022/09/08 11:26:01;;;;;;;7.63;2.10;;;;;;;;;;10060193;28;20030;-62
2022/09/08 11:31:15;;;;;;;6.60;2.72;;;;;;;;;;10040999;28;20053;-62
2022/09/08 11:36:18;;;;;;;10.18;2.97;;;;;;;;;;10037016;28;20405;-62
2022/09/08 11:41:49;;;;;;;6.10;1.98;;;;;;;;;;10033870;28;20444;-63
2022/09/08 11:47:05;;;;;;;15.40;2.72;;;;;;;;;;10035594;28;20049;-63
2022/09/08 11:52:13;;;;;;;9.63;2.22;;;;;;;;;;10033892;28;20115;-62
2022/09/08 11:57:26;;;;;;;7.28;1.80;;;;;;;;;;10042598;28;20046;-62
2022/09/08 12:02:25;;;;;;;10.98;2.10;;;;;;;;;;10043590;28;20119;-63
2022/09/08 12:07:32;;;;;;;10.63;2.10;;;;;;;;;;10067604;28;20049;-63
2022/09/08 12:12:52;;;;;;;6.85;2.35;;;;;;;;;;10035619;28;20053;-63
2022/09/08 12:17:53;;;;;;;5.53;1.42;;;;;;;;;;10063201;28;20056;-63
2022/09/08 12:23:09;;;;;;;12.27;3.22;;;;;;;;;;10038817;28;20062;-62
2022/09/08 12:28:43;;;;;;;5.22;2.13;;;;;;;;;;10055624;28;20096;-63
2022/09/08 12:33:44;;;;;;;10.88;2.25;;;;;;;;;;9990150;28;20145;-62
2022/09/08 12:39:06;;;;;;;8.32;2.45;;;;;;;;;;10041549;28;20054;-62
2022/09/08 12:44:16;;;;;;;11.13;2.38;;;;;;;;;;9998879;28;20049;-62
2022/09/08 12:49:25;;;;;;;9.35;2.80;;;;;;;;;;10046667;28;20120;-62
2022/09/08 12:54:44;;;;;;;11.23;2.33;;;;;;;;;;10064581;28;20056;-62
2022/09/08 12:59:57;;;;;;;8.77;2.10;;;;;;;;;;10042335;28;20058;-61
2022/09/08 13:05:30;;;;;;;8.15;2.38;;;;;;;;;;10049940;28;20049;-63
2022/09/08 13:10:44;;;;;;;10.75;3.28;;;;;;;;;;10031895;28;20418;-64
2022/09/08 13:15:54;;;;;;;5.20;2.15;;;;;;;;;;10035546;28;20137;-65
2022/09/08 13:20:52;;;;;;;13.20;2.60;;;;;;;;;;10045934;28;20096;-64
2022/09/08 13:25:50;;;;;;;15.43;2.70;;;;;;;;;;10030327;28;20053;-65
2022/09/08 13:30:58;;;;;;;8.50;2.13;;;;;;;;;;10043418;28;20069;-64
2022/09/08 13:36:23;;;;;;;3.55;2.00;;;;;;;;;;10047120;28;20050;-64
2022/09/08 13:41:44;;;;;;;4.93;1.98;;;;;;;;;;10041110;28;20512;-65
2022/09/08 13:46:57;;;;;;;9.30;1.92;;;;;;;;;;10043139;28;20046;-65
2022/09/08 13:52:08;;;;;;;5.82;1.48;;;;;;;;;;10031761;28;20049;-64
2022/09/08 13:57:16;;;;;;;5.28;1.55;;;;;;;;;;10042995;28;20057;-64
2022/09/08 14:02:24;;;;;;;5.05;1.30;;;;;;;;;;10049093;28;20053;-65
2022/09/08 14:07:25;;;;;;;7.97;1.35;;;;;;;;;;10055289;28;20054;-65
2022/09/08 14:12:21;;;;;;;5.38;1.23;;;;;;;;;;10056811;28;20546;-64
2022/09/08 14:17:20;;;;;;;7.80;1.70;;;;;;;;;;10052647;28;20149;-64
2022/09/08 14:22:22;;;;;;;5.32;1.27;;;;;;;;;;10045971;28;20063;-64
2022/09/08 14:27:51;;;;;;;5.55;0.98;;;;;;;;;;10041700;28;20446;-64
2022/09/08 14:33:08;;;;;;;2.28;0.90;;;;;;;;;;9961240;28;20057;-65
2022/09/08 14:38:02;;;;;;;2.92;0.70;;;;;;;;;;9982119;28;20054;-64
2022/09/08 14:43:21;;;;;;;4.05;0.73;;;;;;;;;;9971559;28;20133;-65
2022/09/08 14:48:17;;;;;;;14.48;1.25;;;;;;;;;;9973592;28;20493;-65
2022/09/08 14:53:16;;;;;;;3.15;0.75;;;;;;;;;;9972452;28;20050;-65
2022/09/08 14:58:55;;;;;;;3.03;0.75;;;;;;;;;;9973510;28;20054;-65
2022/09/08 15:03:52;;;;;;;2.25;0.75;;;;;;;;;;9965009;28;20383;-64
2022/09/08 15:08:48;;;;;;;6.75;0.88;;;;;;;;;;9972881;28;20380;-64
2022/09/08 15:14:02;;;;;;;3.40;0.90;;;;;;;;;;9985647;28;20109;-65
2022/09/08 15:19:05;;;;;;;5.70;1.35;;;;;;;;;;9972798;28;20082;-64
2022/09/08 15:24:27;;;;;;;4.13;0.70;;;;;;;;;;9967302;28;20425;-65
2022/09/08 15:29:43;;;;;;;8.38;2.08;;;;;;;;;;10001043;28;20058;-64
2022/09/08 15:34:36;;;;;;;5.65;1.30;;;;;;;;;;10021490;28;21499;-64
2022/09/08 15:39:52;;;;;;;5.55;0.85;;;;;;;;;;10036551;28;20045;-66
2022/09/08 15:45:12;;;;;;;12.87;1.60;;;;;;;;;;10041239;28;20053;-65
2022/09/08 15:50:20;;;;;;;4.72;1.38;;;;;;;;;;10062980;28;20052;-65
2022/09/08 15:56:03;;;;;;;8.57;1.60;;;;;;;;;;10049578;28;20084;-65
2022/09/08 16:01:18;;;;;;;9.57;1.55;;;;;;;;;;10053131;28;20069;-65
2022/09/08 16:06:55;;;;;;;4.70;1.92;;;;;;;;;;10061029;28;20742;-65
2022/09/08 16:12:05;;;;;;;4.72;1.50;;;;;;;;;;9953034;28;20046;-65
2022/09/08 16:17:12;;;;;;;3.78;1.60;;;;;;;;;;10056291;28;20060;-65
2022/09/08 16:22:13;;;;;;;6.43;1.75;;;;;;;;;;10054488;28;20073;-65
2022/09/08 16:27:21;;;;;;;6.25;1.40;;;;;;;;;;10049153;28;20425;-65
2022/09/08 16:32:18;;;;;;;5.57;1.90;;;;;;;;;;10044109;28;20140;-65
2022/09/08 16:37:33;;;;;;;5.47;1.50;;;;;;;;;;10060959;28;20459;-66
2022/09/08 16:42:45;;;;;;;8.18;1.88;;;;;;;;;;10034876;28;20060;-65
2022/09/08 16:47:53;;;;;;;9.82;2.28;;;;;;;;;;10059980;28;20068;-67
2022/09/08 16:53:05;;;;;;;7.57;1.58;;;;;;;;;;10049367;28;20509;-67
2022/09/08 16:58:13;;;;;;;4.80;2.13;;;;;;;;;;10059765;28;20060;-72
2022/09/08 17:03:12;;;;;;;;;;;;;;;;;;10048692;28;20208;-68
2022/09/08 17:08:08;;;;;;;;;;;;;;;;;;10042530;28;19922;-72
2022/09/08 17:13:32;;;;;;;2.67;1.40;;;;;;;;;;10033523;28;20366;-67
2022/09/08 17:18:56;;;;;;;5.63;1.60;;;;;;;;;;9980419;28;20148;-65
2022/09/08 17:24:19;;;;;;;9.77;1.80;;;;;;;;;;10054827;28;20061;-66
2022/09/08 17:29:30;;;;;;;4.75;2.33;;;;;;;;;;10052764;28;20141;-64
2022/09/08 17:34:34;;;;;;;7.88;2.40;;;;;;;;;;10050673;28;20050;-65
2022/09/08 17:39:46;;;;;;;7.45;2.97;;;;;;;;;;10018258;28;20140;-64
2022/09/08 17:44:47;;;;;;;4.10;1.67;;;;;;;;;;10038086;28;20053;-65
2022/09/08 17:50:13;;;;;;;2.60;1.35;;;;;;;;;;10049915;28;20568;-64
2022/09/08 17:55:42;;;;;;;7.68;2.13;;;;;;;;;;10037593;28;20092;-68
2022/09/08 18:00:37;;;;;;;6.07;2.67;;;;;;;;;;10039712;28;20056;-66
2022/09/08 18:05:32;;;;;;;10.18;2.17;;;;;;;;;;10047430;28;20050;-66
2022/09/08 18:10:47;;;;;;;6.45;2.13;;;;;;;;;;10033925;28;20057;-67
2022/09/08 18:15:52;;;;;;;10.63;2.25;;;;;;;;;;10050811;28;20049;-65
2022/09/08 18:20:51;;;;;;;10.25;2.03;;;;;;;;;;10035721;28;20103;-64
2022/09/08 18:26:09;;;;;;;4.88;2.30;;;;;;;;;;10058036;28;20045;-65
2022/09/08 18:31:35;;;;;;;4.25;1.90;;;;;;;;;;10058327;28;20049;-64
2022/09/08 18:36:48;;;;;;;3.72;1.90;;;;;;;;;;10031887;28;20501;-63
2022/09/08 18:42:09;;;;;;;9.32;3.08;;;;;;;;;;10030806;28;20057;-68
2022/09/08 18:47:21;;;;;;;;;;;;;;;;;;10021172;28;20050;-63
2022/09/08 18:52:20;;;;;;;7.80;2.45;;;;;;;;;;10031762;28;19944;-61
2022/09/08 18:57:35;;;;;;;7.80;2.70;;;;;;;;;;10035608;28;20046;-63
2022/09/08 19:02:37;;;;;;;7.97;3.30;;;;;;;;;;10044196;28;20104;-65
2022/09/08 19:07:37;;;;;;;9.13;2.17;;;;;;;;;;10051065;28;20520;-63
2022/09/08 19:12:46;;;;;;;13.50;3.85;;;;;;;;;;10067751;28;20137;-63
2022/09/08 19:17:49;;;;;;;8.70;3.58;;;;;;;;;;10050893;28;20579;-61
2022/09/08 19:23:06;;;;;;;12.05;2.80;;;;;;;;;;10038594;28;20054;-62
2022/09/08 19:28:14;;;;;;;8.10;3.25;;;;;;;;;;10032862;28;20061;-59
2022/09/08 19:33:39;;;;;;;12.25;3.85;;;;;;;;;;10035264;28;20049;-60
2022/09/08 19:38:39;;;;;;;6.88;3.92;;;;;;;;;;10030669;28;20058;-61
2022/09/08 19:44:08;;;;;;;7.63;3.50;;;;;;;;;;10028218;28;20042;-66
2022/09/08 19:49:06;;;;;;;7.85;3.45;;;;;;;;;;10026060;28;20042;-64
2022/09/08 19:54:27;;;;;;;8.07;3.45;;;;;;;;;;10012329;28;20046;-61
2022/09/08 19:59:42;;;;;;;6.55;3.53;;;;;;;;;;10013665;28;20104;-62
2022/09/08 20:05:02;;;;;;;8.43;4.20;;;;;;;;;;10031183;28;20050;-63
2022/09/08 20:10:26;;;;;;;10.75;3.95;;;;;;;;;;10028013;28;20061;-68
2022/09/08 20:15:19;;;;;;;6.35;3.53;;;;;;;;;;10024228;28;20054;-69
2022/09/08 20:20:43;;;;;;;10.43;4.97;;;;;;;;;;10011021;28;20105;-67
2022/09/08 20:26:15;;;;;;;12.73;5.70;;;;;;;;;;10003268;28;20054;-65
2022/09/08 20:31:29;;;;;;;11.48;4.50;;;;;;;;;;10010051;28;20054;-66
2022/09/08 20:37:30;;;;;;;10.38;4.22;;;;;;;;;;10020294;28;20056;-66
2022/09/08 20:43:08;;;;;;;9.95;4.57;;;;;;;;;;10004924;28;20083;-68
2022/09/08 20:48:15;;;;;;;8.75;4.43;;;;;;;;;;10028044;28;20549;-67
2022/09/08 20:53:29;;;;;;;7.53;5.35;;;;;;;;;;10031100;28;20543;-69
2022/09/08 20:58:26;;;;;;;12.40;4.47;;;;;;;;;;10040596;28;20103;-68
2022/09/08 21:03:27;;;;;;;6.65;4.82;;;;;;;;;;10019664;28;20125;-65
2022/09/08 21:08:30;;;;;;;11.95;4.80;;;;;;;;;;10018515;28;20104;-66
2022/09/08 21:13:33;;;;;;;6.78;4.97;;;;;;;;;;10026393;28;20683;-68
2022/09/08 21:18:46;;;;;;;8.55;5.95;;;;;;;;;;10031644;28;20100;-65
2022/09/08 21:23:43;;;;;;;6.10;4.85;;;;;;;;;;10029807;28;20405;-64
2022/09/08 21:28:44;;;;;;;9.75;5.00;;;;;;;;;;10031805;28;20084;-64
2022/09/08 21:33:46;;;;;;;11.55;5.15;;;;;;;;;;10041593;28;20072;-64
2022/09/08 21:38:54;;;;;;;9.38;5.18;;;;;;;;;;10039952;28;20107;-64
2022/09/08 21:43:57;;;;;;;12.77;5.15;;;;;;;;;;10032399;28;20050;-64
2022/09/08 21:48:52;;;;;;;8.18;4.50;;;;;;;;;;10029769;28;20132;-70
2022/09/08 21:53:55;;;;;;;10.60;4.80;;;;;;;;;;10020029;28;20128;-71
2022/09/08 21:59:12;;;;;;;7.22;4.90;;;;;;;;;;10015301;28;20072;-70
2022/09/08 22:04:34;;;;;;;14.05;6.45;;;;;;;;;;10034193;28;20069;-71
2022/09/08 22:09:29;;;;;;;8.85;5.13;;;;;;;;;;10010882;28;20107;-75
2022/09/08 22:15:13;;;;;;;12.20;5.50;;;;;;;;;;10020285;28;20049;-69
2022/09/08 22:20:11;;;;;;;10.48;4.32;;;;;;;;;;9872836;29;20085;-70
2022/09/08 22:25:26;;;;;;;10.88;5.10;;;;;;;;;;9994655;28;20048;-73
2022/09/08 22:30:57;;;;;;;7.00;4.13;;;;;;;;;;10034874;28;20119;-72
2022/09/08 22:36:16;;;;;;;7.50;4.10;;;;;;;;;;10031847;28;20050;-73
2022/09/08 22:42:03;;;;;;;11.38;8.15;;;;;;;;;;10014219;28;20065;-73
2022/09/08 22:47:24;;;;;;;9.68;7.30;;;;;;;;;;10028106;28;20050;-73
2022/09/08 22:52:44;;;;;;;17.23;10.25;;;;;;;;;;10042506;28;20103;-72
2022/09/08 22:57:46;;;;;;;12.55;7.78;;;;;;;;;;10030412;28;20053;-74
2022/09/08 23:02:42;;;;;;;17.08;11.05;;;;;;;;;;10025462;28;20049;-75
2022/09/08 23:07:41;;;;;;;16.73;9.73;;;;;;;;;;10054004;28;20052;-73
2022/09/08 23:12:38;;;;;;;12.40;9.57;;;;;;;;;;10045346;28;20053;-74
2022/09/08 23:17:51;;;;;;;15.00;10.60;;;;;;;;;;10045556;28;20083;-74
2022/09/08 23:22:53;;;;;;;14.50;9.88;;;;;;;;;;10021475;28;20050;-73
2022/09/08 23:28:07;;;;;;;17.23;9.82;;;;;;;;;;10047827;28;20058;-73
2022/09/08 23:33:16;;;;;;;11.68;8.88;;;;;;;;;;10052913;28;20050;-71
2022/09/08 23:38:18;;;;;;;12.43;8.90;;;;;;;;;;10053083;28;20876;-71
2022/09/08 23:43:35;;;;;;;11.48;8.18;;;;;;;;;;10047127;28;20057;-72
2022/09/08 23:48:30;;;;;;;10.52;7.88;;;;;;;;;;10037335;28;20500;-71
2022/09/08 23:53:31;;;;;;;9.77;7.75;;;;;;;;;;10057010;28;20443;-70
2022/09/08 23:58:25;;;;;;;12.68;6.82;;;;;;;;;;10057947;28;20433;-71
